Campbell, Minnesota
Current Conditions -  °F | °C
As of 9:55 PM on Sunday 21 Dec 2014 (Local Time) from KBWP Reporting Station
Overcast Overcast  
Wind Chill: 26°   Ceiling: 300
Heat Index: 34°   Visibility: 2.5mi
Dew Point: 32°   Wind: 10mph
Humidity: 93%   Direction: 140°SE
Pressure: 29.56"   Gusts: NA
Location:  46.1°N, 96.4°W
Report Text: KBWP 220355Z AUTO 14009KT 2 1/2SM OVC003 01/00 A2956 RMK AO1 P0002
Loading
Personal Weather Stations






























Interactive Weather Map New forecast layout! Learn more

10-Day Weather Forecast

Advertisements
Track Severe Weather on mobile